createdAt,value
2019-02-10T00:01:02.745Z,100094.52
2019-02-10T00:03:31.195Z,100096.63
2019-02-10T00:05:59.630Z,100090.34
2019-02-10T00:08:28.022Z,100088.47
2019-02-10T00:10:56.891Z,100078.84
2019-02-10T00:13:35.700Z,100073.81
2019-02-10T00:16:10.132Z,100072.17
2019-02-10T00:18:38.593Z,100071.80
2019-02-10T00:21:07.061Z,100056.83
2019-02-10T00:23:35.384Z,100055.77
2019-02-10T00:26:03.887Z,100055.86
2019-02-10T00:28:32.347Z,100047.59
2019-02-10T00:31:00.767Z,100038.57
2019-02-10T00:33:29.230Z,100043.77
2019-02-10T00:35:57.622Z,100030.57
2019-02-10T00:38:26.054Z,100027.26
2019-02-10T00:40:54.828Z,100026.55
2019-02-10T00:43:23.238Z,100032.88
2019-02-10T00:45:51.647Z,100019.34
2019-02-10T00:48:20.080Z,100018.30
2019-02-10T00:50:48.491Z,100012.17
2019-02-10T00:53:16.944Z,99997.92
2019-02-10T00:55:45.332Z,99997.92
2019-02-10T00:58:13.720Z,99992.17
2019-02-10T01:00:42.182Z,99985.53
2019-02-10T01:03:10.660Z,99985.41
2019-02-10T01:05:39.067Z,99980.05
2019-02-10T01:08:07.508Z,99972.00
2019-02-10T01:10:35.904Z,99966.38
2019-02-10T01:13:04.370Z,99970.81
2019-02-10T01:15:32.758Z,99960.48
2019-02-10T01:18:01.374Z,99965.45
2019-02-10T01:20:29.852Z,99960.05
2019-02-10T01:22:58.303Z,99955.83
2019-02-10T01:25:26.703Z,99944.47
2019-02-10T01:27:55.115Z,99936.05
2019-02-10T01:30:23.944Z,99938.60
2019-02-10T01:32:52.388Z,99925.98
2019-02-10T01:35:20.869Z,99919.30
2019-02-10T01:37:49.610Z,99920.31
2019-02-10T01:40:18.078Z,99898.86
2019-02-10T01:42:46.467Z,99899.22
2019-02-10T01:45:14.865Z,99891.50
2019-02-10T01:47:43.636Z,99881.44
2019-02-10T01:50:12.680Z,99859.47
2019-02-10T01:52:41.093Z,99841.58
2019-02-10T01:55:12.273Z,99838.66
2019-02-10T01:57:40.769Z,99842.69
2019-02-10T02:00:12.270Z,99837.20
2019-02-10T02:02:41.079Z,99830.69
2019-02-10T02:05:10.231Z,99828.63
2019-02-10T02:07:38.633Z,99829.72
2019-02-10T02:10:09.913Z,99814.52
2019-02-10T02:12:38.385Z,99812.24
2019-02-10T02:15:10.170Z,99799.19
2019-02-10T02:17:38.939Z,99775.83
2019-02-10T02:20:09.460Z,99788.53
2019-02-10T02:22:37.930Z,99786.61
2019-02-10T02:25:11.440Z,99781.61
2019-02-10T02:27:40.070Z,99783.14
2019-02-10T02:30:11.565Z,99785.37
2019-02-10T02:32:40.174Z,99777.50
2019-02-10T02:35:09.211Z,99767.23
2019-02-10T02:37:37.659Z,99758.31
2019-02-10T02:40:08.597Z,99754.81
2019-02-10T02:42:37.279Z,99746.97
2019-02-10T02:45:08.306Z,99741.91
2019-02-10T02:47:37.088Z,99729.80
2019-02-10T02:50:07.951Z,99724.03
2019-02-10T02:52:36.360Z,99715.81
2019-02-10T02:55:06.503Z,99708.12
2019-02-10T02:57:35.028Z,99710.27
2019-02-10T03:00:03.900Z,99698.41
2019-02-10T03:02:32.565Z,99704.09
2019-02-10T03:05:01.375Z,99699.58
2019-02-10T03:07:29.973Z,99695.52
2019-02-10T03:09:58.631Z,99686.36
2019-02-10T03:12:27.072Z,99666.78
2019-02-10T03:14:55.504Z,99654.84
2019-02-10T03:17:24.105Z,99652.80
2019-02-10T03:19:54.232Z,99652.11
2019-02-10T03:22:22.981Z,99643.88
2019-02-10T03:24:51.630Z,99635.63
2019-02-10T03:27:20.349Z,99640.11
2019-02-10T03:29:49.164Z,99629.95
2019-02-10T03:32:17.726Z,99615.45
2019-02-10T03:34:46.339Z,99614.93
2019-02-10T03:37:15.099Z,99606.99
2019-02-10T03:39:43.891Z,99594.70
2019-02-10T03:42:12.562Z,99587.98
2019-02-10T03:44:41.020Z,99584.09
2019-02-10T03:47:09.530Z,99577.95
2019-02-10T03:49:38.238Z,99570.28
2019-02-10T03:52:06.910Z,99565.31
2019-02-10T03:54:35.599Z,99555.43
2019-02-10T03:57:04.302Z,99543.48
2019-02-10T03:59:33.185Z,99535.28
2019-02-10T04:02:01.747Z,99527.66
2019-02-10T04:04:30.519Z,99530.15
2019-02-10T04:06:59.295Z,99531.13
2019-02-10T04:09:27.908Z,99529.75
2019-02-10T04:11:56.702Z,99533.76
2019-02-10T04:14:25.356Z,99519.89
2019-02-10T04:16:53.797Z,99512.94
2019-02-10T04:19:22.383Z,99507.97
2019-02-10T04:21:50.873Z,99509.97
2019-02-10T04:24:19.283Z,99499.21
2019-02-10T04:26:47.771Z,99504.61
2019-02-10T04:29:16.458Z,99499.89
2019-02-10T04:31:45.136Z,99484.92
2019-02-10T04:34:13.962Z,99477.09
2019-02-10T04:36:42.353Z,99484.64
2019-02-10T04:39:11.024Z,99469.24
2019-02-10T04:41:39.422Z,99467.92
2019-02-10T04:44:07.844Z,99460.41
2019-02-10T04:46:36.295Z,99455.02
2019-02-10T04:49:05.004Z,99445.16
2019-02-10T04:51:33.764Z,99436.00
2019-02-10T04:54:02.184Z,99421.01
2019-02-10T04:56:30.974Z,99427.45
2019-02-10T04:58:59.376Z,99427.13
2019-02-10T05:01:27.962Z,99416.98
2019-02-10T05:03:56.903Z,99423.30
2019-02-10T05:06:25.397Z,99417.97
2019-02-10T05:08:53.795Z,99397.68
2019-02-10T05:11:22.195Z,99397.02
2019-02-10T05:13:50.777Z,99404.34
2019-02-10T05:16:19.253Z,99381.67
2019-02-10T05:18:47.706Z,99363.03
2019-02-10T05:21:16.106Z,99366.36
2019-02-10T05:23:44.748Z,99370.28
2019-02-10T05:26:13.584Z,99354.41
2019-02-10T05:28:42.398Z,99343.13
2019-02-10T05:31:10.783Z,99336.44
2019-02-10T05:33:39.268Z,99338.25
2019-02-10T05:36:07.706Z,99317.78
2019-02-10T05:38:36.373Z,99326.77
2019-02-10T05:41:04.777Z,99318.86
2019-02-10T05:43:33.581Z,99318.86
2019-02-10T05:46:01.980Z,99316.27
2019-02-10T05:48:30.709Z,99310.56
2019-02-10T05:50:59.153Z,99303.47
2019-02-10T05:53:27.842Z,99280.58
2019-02-10T05:55:56.236Z,99286.88
2019-02-10T05:58:24.680Z,99288.09
2019-02-10T06:00:53.222Z,99274.08
2019-02-10T06:03:21.694Z,99278.75
2019-02-10T06:05:50.444Z,99264.58
2019-02-10T06:08:18.871Z,99258.62
2019-02-10T06:10:47.263Z,99265.03
2019-02-10T06:13:16.042Z,99256.03
2019-02-10T06:15:44.455Z,99254.03
2019-02-10T06:18:12.884Z,99251.92
2019-02-10T06:20:41.664Z,99252.68
2019-02-10T06:23:10.083Z,99241.48
2019-02-10T06:25:38.486Z,99233.88
2019-02-10T06:28:06.902Z,99225.33
2019-02-10T06:30:35.362Z,99222.16
2019-02-10T06:33:04.235Z,99220.02
2019-02-10T06:35:32.652Z,99197.60
2019-02-10T06:38:01.076Z,99188.41
2019-02-10T06:40:29.503Z,99174.23
2019-02-10T06:42:58.320Z,99174.27
2019-02-10T06:45:26.864Z,99158.30
2019-02-10T06:47:55.307Z,99146.42
2019-02-10T06:50:24.053Z,99138.52
2019-02-10T06:52:52.602Z,99130.11
2019-02-10T06:55:21.012Z,99097.97
2019-02-10T06:57:49.410Z,99102.06
2019-02-10T07:00:36.199Z,99092.69
2019-02-10T07:03:41.161Z,99090.20
2019-02-10T07:06:10.457Z,99078.66
2019-02-10T07:08:38.858Z,99081.97
2019-02-10T07:11:07.307Z,99082.45
2019-02-10T07:13:38.675Z,99084.27
2019-02-10T07:16:45.594Z,99070.11
2019-02-10T07:19:50.735Z,99074.70
2019-02-10T07:22:34.499Z,99075.05
2019-02-10T07:25:17.991Z,99061.53
2019-02-10T07:27:58.123Z,99062.84
2019-02-10T07:30:41.703Z,99050.48
2019-02-10T07:33:16.022Z,99065.14
2019-02-10T07:35:59.912Z,99046.01
2019-02-10T07:38:52.645Z,99062.02
2019-02-10T07:41:36.249Z,99059.69
2019-02-10T07:44:40.981Z,99040.73
2019-02-10T07:47:21.300Z,99053.94
2019-02-10T07:50:01.706Z,99045.33
2019-02-10T07:52:44.877Z,99044.37
2019-02-10T07:55:25.525Z,99056.22
2019-02-10T07:58:31.997Z,99044.37
2019-02-10T08:01:18.130Z,99051.28
2019-02-10T08:04:06.128Z,99048.97
2019-02-10T08:07:12.756Z,99038.26
2019-02-10T08:09:49.989Z,99026.02
2019-02-10T08:12:21.916Z,99029.33
2019-02-10T08:14:59.438Z,99021.91
2019-02-10T08:17:45.971Z,99024.88
2019-02-10T08:20:32.501Z,99017.62
2019-02-10T08:23:12.777Z,99009.36
2019-02-10T08:26:02.397Z,99006.90
2019-02-10T08:28:39.822Z,98985.77
2019-02-10T08:31:20.309Z,98981.95
2019-02-10T08:34:12.718Z,98970.40
2019-02-10T08:36:56.856Z,98968.09
2019-02-10T08:39:37.520Z,98948.75
2019-02-10T08:42:09.127Z,98934.72
2019-02-10T08:44:40.889Z,98930.43
2019-02-10T08:47:24.987Z,98913.55
2019-02-10T08:50:14.624Z,98902.90
2019-02-10T08:52:52.296Z,98890.78
2019-02-10T08:55:20.907Z,98877.02
2019-02-10T08:57:49.447Z,98865.72
2019-02-10T09:00:18.260Z,98855.58
2019-02-10T09:02:46.826Z,98852.38
2019-02-10T09:05:15.581Z,98843.37
2019-02-10T09:07:43.991Z,98831.08
2019-02-10T09:10:13.582Z,98824.71
2019-02-10T09:12:41.973Z,98817.16
2019-02-10T09:15:12.482Z,98801.20
2019-02-10T09:17:40.926Z,98806.02
2019-02-10T09:20:11.695Z,98801.38
2019-02-10T09:22:40.223Z,98793.44
2019-02-10T09:25:12.717Z,98787.30
2019-02-10T09:27:41.111Z,98784.38
2019-02-10T09:30:14.152Z,98786.31
2019-02-10T09:32:42.947Z,98784.97
2019-02-10T09:35:11.648Z,98786.93
2019-02-10T09:37:41.897Z,98782.47
2019-02-10T09:40:13.436Z,98775.92
2019-02-10T09:42:42.206Z,98779.39
2019-02-10T09:45:12.483Z,98769.41
2019-02-10T09:47:41.048Z,98748.98
2019-02-10T09:50:12.652Z,98743.69
2019-02-10T09:52:41.130Z,98738.44
2019-02-10T09:55:09.851Z,98749.02
2019-02-10T09:57:38.288Z,98730.84
2019-02-10T10:00:14.771Z,98729.78
2019-02-10T10:02:43.287Z,98726.09
2019-02-10T10:05:13.357Z,98725.74
2019-02-10T10:07:41.806Z,98731.17
2019-02-10T10:10:12.959Z,98719.30
2019-02-10T10:12:41.776Z,98709.84
2019-02-10T10:15:13.410Z,98714.52
2019-02-10T10:17:41.960Z,98711.92
2019-02-10T10:20:16.074Z,98700.13
2019-02-10T10:22:44.484Z,98710.86
2019-02-10T10:25:12.985Z,98700.50
2019-02-10T10:27:41.569Z,98709.22
2019-02-10T10:30:15.561Z,98692.73
2019-02-10T10:32:44.006Z,98696.52
2019-02-10T10:35:12.601Z,98698.80
2019-02-10T10:37:42.103Z,98694.83
2019-02-10T10:40:11.547Z,98692.36
2019-02-10T10:42:39.980Z,98687.88
2019-02-10T10:45:11.756Z,98681.63
2019-02-10T10:47:40.153Z,98680.30
2019-02-10T10:50:11.237Z,98678.98
2019-02-10T10:52:40.030Z,98674.50
2019-02-10T10:55:10.732Z,98664.80
2019-02-10T10:57:39.355Z,98651.37
2019-02-10T11:00:13.772Z,98645.86
2019-02-10T11:02:44.054Z,98640.64
2019-02-10T11:05:12.462Z,98632.05
2019-02-10T11:07:40.979Z,98636.35
2019-02-10T11:10:12.132Z,98624.98
2019-02-10T11:12:40.535Z,98623.92
2019-02-10T11:15:16.899Z,98617.57
2019-02-10T11:17:45.331Z,98611.23
2019-02-10T11:20:13.854Z,98595.24
2019-02-10T11:22:42.756Z,98588.48
2019-02-10T11:25:12.409Z,98592.23
2019-02-10T11:27:40.860Z,98586.94
2019-02-10T11:30:16.002Z,98586.85
2019-02-10T11:32:45.758Z,98591.46
2019-02-10T11:35:14.272Z,98589.40
2019-02-10T11:37:44.367Z,98573.19
2019-02-10T11:40:13.607Z,98573.84
2019-02-10T11:42:42.044Z,98574.63
2019-02-10T11:45:14.902Z,98575.55
2019-02-10T11:47:43.738Z,98566.41
2019-02-10T11:50:14.247Z,98578.83
2019-02-10T11:52:43.053Z,98572.53
2019-02-10T11:55:11.902Z,98580.42
2019-02-10T11:57:40.351Z,98566.31
2019-02-10T12:00:14.618Z,98564.48
2019-02-10T12:02:43.230Z,98555.59
2019-02-10T12:05:12.250Z,98546.77
2019-02-10T12:07:41.032Z,98548.78
2019-02-10T12:10:13.425Z,98547.72
2019-02-10T12:12:41.862Z,98546.95
2019-02-10T12:15:15.371Z,98539.14
2019-02-10T12:17:43.778Z,98533.72
2019-02-10T12:20:13.987Z,98523.63
2019-02-10T12:22:49.937Z,98524.97
2019-02-10T12:25:13.169Z,98504.55
2019-02-10T12:27:42.010Z,98512.31
2019-02-10T12:30:15.626Z,98506.65
2019-02-10T12:32:44.397Z,98486.36
2019-02-10T12:35:13.259Z,98491.59
2019-02-10T12:37:42.091Z,98473.70
2019-02-10T12:40:14.106Z,98490.19
2019-02-10T12:42:42.869Z,98486.53
2019-02-10T12:45:13.535Z,98481.80
2019-02-10T12:47:42.116Z,98476.45
2019-02-10T12:50:16.750Z,98471.98
2019-02-10T12:52:45.518Z,98464.23
2019-02-10T12:55:14.172Z,98451.88
2019-02-10T12:57:42.981Z,98451.36
2019-02-10T13:00:14.504Z,98452.34
2019-02-10T13:02:43.018Z,98453.86
2019-02-10T13:05:12.108Z,98452.85
2019-02-10T13:07:41.029Z,98443.31
2019-02-10T13:10:12.177Z,98444.64
2019-02-10T13:12:40.780Z,98443.25
2019-02-10T13:15:11.228Z,98447.11
2019-02-10T13:17:40.017Z,98447.70
2019-02-10T13:20:13.254Z,98456.00
2019-02-10T13:22:42.273Z,98458.39
2019-02-10T13:25:12.143Z,98468.98
2019-02-10T13:27:41.680Z,98470.47
2019-02-10T13:30:14.886Z,98487.00
2019-02-10T13:32:43.675Z,98481.48
2019-02-10T13:35:16.546Z,98485.70
2019-02-10T13:37:45.074Z,98492.17
2019-02-10T13:40:22.024Z,98491.26
2019-02-10T13:42:50.733Z,98494.50
2019-02-10T13:45:19.594Z,98498.88
2019-02-10T13:47:51.615Z,98492.90
2019-02-10T13:50:21.200Z,98488.92
2019-02-10T13:52:49.918Z,98488.29
2019-02-10T13:55:18.421Z,98489.62
2019-02-10T13:57:47.103Z,98500.52
2019-02-10T14:00:20.816Z,98499.58
2019-02-10T14:02:49.463Z,98499.70
2019-02-10T14:05:18.337Z,98512.77
2019-02-10T14:07:47.162Z,98513.86
2019-02-10T14:10:25.418Z,98514.37
2019-02-10T14:12:48.846Z,98515.20
2019-02-10T14:15:20.881Z,98530.95
2019-02-10T14:17:49.956Z,98528.88
2019-02-10T14:20:21.987Z,98520.17
2019-02-10T14:22:50.573Z,98531.47
2019-02-10T14:25:19.456Z,98535.56
2019-02-10T14:27:48.299Z,98533.44
2019-02-10T14:30:19.369Z,98540.67
2019-02-10T14:32:48.265Z,98543.28
2019-02-10T14:35:18.083Z,98541.32
2019-02-10T14:37:47.740Z,98550.81
2019-02-10T14:40:16.250Z,98544.57
2019-02-10T14:42:44.753Z,98554.56
2019-02-10T14:45:14.823Z,98553.63
2019-02-10T14:47:43.780Z,98545.63
2019-02-10T14:50:19.054Z,98554.02
2019-02-10T14:52:47.566Z,98556.66
2019-02-10T14:55:16.017Z,98562.88
2019-02-10T14:57:44.609Z,98563.59
2019-02-10T15:00:15.799Z,98561.77
2019-02-10T15:02:44.866Z,98572.84
2019-02-10T15:05:31.970Z,98585.73
2019-02-10T15:08:00.568Z,98595.23
2019-02-10T15:10:32.137Z,98598.35
2019-02-10T15:13:01.203Z,98592.16
2019-02-10T15:15:29.616Z,98587.22
2019-02-10T15:17:58.305Z,98596.23
2019-02-10T15:20:27.149Z,98601.84
2019-02-10T15:22:56.097Z,98588.58
2019-02-10T15:25:24.828Z,98591.19
2019-02-10T15:27:53.653Z,98602.25
2019-02-10T15:30:22.549Z,98605.98
2019-02-10T15:32:51.059Z,98610.18
2019-02-10T15:35:19.522Z,98607.06
2019-02-10T15:37:48.271Z,98626.36
2019-02-10T15:40:17.045Z,98623.22
2019-02-10T15:42:45.981Z,98617.88
2019-02-10T15:45:14.861Z,98620.41
2019-02-10T15:47:43.659Z,98609.92
2019-02-10T15:50:14.168Z,98622.95
2019-02-10T15:52:42.844Z,98619.87
2019-02-10T15:55:14.957Z,98618.61
2019-02-10T15:57:43.668Z,98618.58
2019-02-10T16:00:25.114Z,98625.45
2019-02-10T16:02:53.830Z,98618.52
2019-02-10T16:05:22.683Z,98628.61
2019-02-10T16:07:51.546Z,98628.02
2019-02-10T16:10:20.410Z,98629.52
2019-02-10T16:12:49.223Z,98629.27
2019-02-10T16:15:18.037Z,98632.84
2019-02-10T16:17:46.819Z,98637.94
2019-02-10T16:20:16.072Z,98644.05
2019-02-10T16:22:44.935Z,98637.10
2019-02-10T16:25:13.644Z,98647.19
2019-02-10T16:27:42.572Z,98658.30
2019-02-10T16:30:19.110Z,98657.46
2019-02-10T16:32:49.949Z,98649.22
2019-02-10T16:35:18.671Z,98665.34
2019-02-10T16:37:47.625Z,98654.50
2019-02-10T16:40:19.619Z,98644.98
2019-02-10T16:42:50.067Z,98671.36
2019-02-10T16:45:18.939Z,98675.00
2019-02-10T16:47:48.045Z,98675.33
2019-02-10T16:50:17.772Z,98670.06
2019-02-10T16:52:46.435Z,98678.03
2019-02-10T16:55:21.674Z,98665.52
2019-02-10T16:57:50.606Z,98672.77
2019-02-10T17:00:19.550Z,98677.77
2019-02-10T17:02:48.567Z,98682.72
2019-02-10T17:05:17.460Z,98700.31
2019-02-10T17:07:46.314Z,98698.72
2019-02-10T17:10:16.903Z,98696.53
2019-02-10T17:12:45.443Z,98712.63
2019-02-10T17:15:14.353Z,98704.27
2019-02-10T17:17:47.874Z,98708.61
2019-02-10T17:20:16.990Z,98728.40
2019-02-10T17:22:45.515Z,98754.62
2019-02-10T17:25:19.828Z,98757.30
2019-02-10T17:27:48.432Z,98764.05
2019-02-10T17:30:17.082Z,98767.05
2019-02-10T17:32:45.544Z,98778.23
2019-02-10T17:35:15.136Z,98760.75
2019-02-10T17:37:43.638Z,98763.69
2019-02-10T17:40:23.306Z,98768.47
2019-02-10T17:42:51.898Z,98771.64
2019-02-10T17:45:20.761Z,98774.94
2019-02-10T17:47:49.720Z,98767.05
2019-02-10T17:50:20.155Z,98772.33
2019-02-10T17:52:48.663Z,98777.27
2019-02-10T17:55:17.395Z,98800.02
2019-02-10T17:57:47.898Z,98796.56
2019-02-10T18:00:21.813Z,98794.78
2019-02-10T18:02:50.355Z,98799.88
2019-02-10T18:05:18.929Z,98802.36
2019-02-10T18:07:47.742Z,98813.42
2019-02-10T18:10:16.609Z,98821.48
2019-02-10T18:12:45.294Z,98833.38
2019-02-10T18:15:15.878Z,98829.27
2019-02-10T18:18:01.744Z,98850.53
2019-02-10T18:20:34.754Z,98860.42
2019-02-10T18:23:21.633Z,98863.38
2019-02-10T18:26:00.675Z,98874.92
2019-02-10T18:28:41.268Z,98872.30
2019-02-10T18:31:11.830Z,98875.58
2019-02-10T18:33:43.667Z,98872.27
2019-02-10T18:36:41.769Z,98898.81
2019-02-10T18:39:12.373Z,98878.38
2019-02-10T18:41:49.252Z,98882.48
2019-02-10T18:44:28.371Z,98879.85
2019-02-10T18:46:58.577Z,98891.06
2019-02-10T18:49:44.159Z,98895.00
2019-02-10T18:52:17.231Z,98894.02
2019-02-10T18:54:52.327Z,98912.15
2019-02-10T18:57:35.153Z,98905.38
2019-02-10T19:00:15.071Z,98920.38
2019-02-10T19:02:50.581Z,98922.34
2019-02-10T19:05:36.948Z,98912.10
2019-02-10T19:08:08.296Z,98909.78
2019-02-10T19:10:54.537Z,98933.01
2019-02-10T19:13:25.539Z,98935.98
2019-02-10T19:16:01.303Z,98931.51
2019-02-10T19:18:34.620Z,98930.34
2019-02-10T19:21:11.423Z,98937.42
2019-02-10T19:23:57.886Z,98960.77
2019-02-10T19:26:47.334Z,98971.00
2019-02-10T19:29:29.844Z,98975.10
2019-02-10T19:32:17.392Z,98987.94
2019-02-10T19:34:48.158Z,98988.76
2019-02-10T19:37:28.522Z,99012.16
2019-02-10T19:40:15.151Z,99027.59
2019-02-10T19:43:03.696Z,99035.07
2019-02-10T19:45:36.911Z,99045.27
2019-02-10T19:48:10.171Z,99058.92
2019-02-10T19:51:01.656Z,99072.02
2019-02-10T19:53:35.078Z,99079.89
2019-02-10T19:56:05.555Z,99079.55
2019-02-10T19:58:38.815Z,99095.17
2019-02-10T20:01:09.112Z,99108.41
2019-02-10T20:03:54.687Z,99107.70
2019-02-10T20:06:33.977Z,99110.86
2019-02-10T20:09:17.104Z,99109.39
2019-02-10T20:12:03.907Z,99117.48
2019-02-10T20:14:43.589Z,99113.69
2019-02-10T20:17:25.743Z,99121.06
2019-02-10T20:20:02.456Z,99132.34
2019-02-10T20:22:35.741Z,99133.41
2019-02-10T20:25:06.942Z,99150.48
2019-02-10T20:27:53.397Z,99159.36
2019-02-10T20:30:32.388Z,99163.95
2019-02-10T20:33:16.808Z,99168.23
2019-02-10T20:35:48.854Z,99175.46
2019-02-10T20:38:39.028Z,99167.51
2019-02-10T20:41:15.607Z,99167.22
2019-02-10T20:43:48.781Z,99177.06
2019-02-10T20:46:22.558Z,99185.55
2019-02-10T20:48:52.883Z,99189.45
2019-02-10T20:51:40.695Z,99187.50
2019-02-10T20:54:17.722Z,99183.14
2019-02-10T20:56:50.854Z,99191.32
2019-02-10T20:59:30.362Z,99194.08
2019-02-10T21:02:00.588Z,99209.20
2019-02-10T21:04:40.191Z,99208.09
2019-02-10T21:07:30.009Z,99213.35
2019-02-10T21:10:03.434Z,99220.96
2019-02-10T21:12:50.071Z,99232.76
2019-02-10T21:15:25.918Z,99242.72
2019-02-10T21:18:00.121Z,99250.06
2019-02-10T21:20:36.702Z,99253.20
2019-02-10T21:23:09.764Z,99261.10
2019-02-10T21:25:43.981Z,99270.01
2019-02-10T21:28:17.385Z,99268.38
2019-02-10T21:31:06.097Z,99268.08
2019-02-10T21:33:52.887Z,99287.97
2019-02-10T21:36:23.378Z,99287.41
2019-02-10T21:39:10.015Z,99295.25
2019-02-10T21:41:40.245Z,99299.94
2019-02-10T21:44:10.442Z,99310.91
2019-02-10T21:46:40.634Z,99310.41
2019-02-10T21:49:11.203Z,99311.05
2019-02-10T21:51:39.856Z,99312.19
2019-02-10T21:54:08.566Z,99304.38
2019-02-10T21:56:37.130Z,99305.27
2019-02-10T21:59:05.676Z,99310.76
2019-02-10T22:01:34.290Z,99311.65
2019-02-10T22:04:03.254Z,99313.08
2019-02-10T22:06:31.663Z,99319.40
2019-02-10T22:09:00.144Z,99321.17
2019-02-10T22:11:28.553Z,99327.41
2019-02-10T22:13:57.344Z,99327.95
2019-02-10T22:16:25.751Z,99327.06
2019-02-10T22:18:54.492Z,99328.34
2019-02-10T22:21:22.953Z,99332.52
2019-02-10T22:23:51.486Z,99330.42
2019-02-10T22:26:19.901Z,99339.98
2019-02-10T22:28:48.433Z,99348.64
2019-02-10T22:31:18.765Z,99341.03
2019-02-10T22:33:51.458Z,99350.03
2019-02-10T22:36:17.816Z,99359.65
2019-02-10T22:38:46.241Z,99365.43
2019-02-10T22:41:15.121Z,99363.39
2019-02-10T22:43:43.564Z,99358.89
2019-02-10T22:46:12.338Z,99364.33
2019-02-10T22:48:40.754Z,99369.66
2019-02-10T22:51:10.184Z,99358.02
2019-02-10T22:53:39.117Z,99377.86
2019-02-10T22:56:07.518Z,99378.75
2019-02-10T22:58:36.305Z,99387.16
2019-02-10T23:01:06.574Z,99386.20
2019-02-10T23:03:35.093Z,99407.01
2019-02-10T23:06:03.578Z,99414.41
2019-02-10T23:08:32.063Z,99411.69
2019-02-10T23:11:00.520Z,99412.69
2019-02-10T23:13:28.966Z,99419.92
2019-02-10T23:15:57.363Z,99430.43
2019-02-10T23:18:26.064Z,99437.00
2019-02-10T23:20:54.464Z,99440.95
2019-02-10T23:23:23.180Z,99448.95
2019-02-10T23:25:51.610Z,99449.07
2019-02-10T23:28:20.515Z,99456.61
2019-02-10T23:30:49.411Z,99464.98
2019-02-10T23:33:18.545Z,99468.34
2019-02-10T23:35:47.555Z,99478.23
2019-02-10T23:38:15.995Z,99497.80
2019-02-10T23:40:44.772Z,99500.22
2019-02-10T23:43:13.254Z,99513.36
2019-02-10T23:45:41.650Z,99508.72
2019-02-10T23:48:10.092Z,99524.72
2019-02-10T23:50:38.834Z,99526.41
2019-02-10T23:53:07.439Z,99530.59
2019-02-10T23:55:35.845Z,99534.05
2019-02-10T23:58:04.368Z,99546.72
